sensor_id;sensor_type;location;lat;lon;timestamp;pressure;altitude;pressure_sealevel;temperature;humidity
47366;BME280;33105;47.964;7.982;2023-04-26T00:01:02;96755.72;;;4.74;100.00
47366;BME280;33105;47.964;7.982;2023-04-26T00:04:06;96753.81;;;4.75;100.00
47366;BME280;33105;47.964;7.982;2023-04-26T00:07:07;96755.63;;;4.81;100.00
47366;BME280;33105;47.964;7.982;2023-04-26T00:10:09;96751.56;;;4.72;100.00
47366;BME280;33105;47.964;7.982;2023-04-26T00:13:10;96755.25;;;4.59;100.00
47366;BME280;33105;47.964;7.982;2023-04-26T00:16:14;96754.72;;;4.51;100.00
47366;BME280;33105;47.964;7.982;2023-04-26T00:19:16;96751.56;;;4.54;100.00
47366;BME280;33105;47.964;7.982;2023-04-26T00:22:18;96752.41;;;4.54;100.00
47366;BME280;33105;47.964;7.982;2023-04-26T00:25:19;96754.94;;;4.49;100.00
47366;BME280;33105;47.964;7.982;2023-04-26T00:28:20;96755.84;;;4.43;100.00
47366;BME280;33105;47.964;7.982;2023-04-26T00:31:22;96749.50;;;4.31;100.00
47366;BME280;33105;47.964;7.982;2023-04-26T00:34:23;96750.00;;;4.21;100.00
47366;BME280;33105;47.964;7.982;2023-04-26T00:37:24;96751.34;;;4.12;100.00
47366;BME280;33105;47.964;7.982;2023-04-26T00:40:25;96752.63;;;4.09;100.00
47366;BME280;33105;47.964;7.982;2023-04-26T00:43:27;96753.31;;;3.98;100.00
47366;BME280;33105;47.964;7.982;2023-04-26T00:46:28;96756.03;;;3.98;100.00
47366;BME280;33105;47.964;7.982;2023-04-26T00:49:31;96764.47;;;4.08;100.00
47366;BME280;33105;47.964;7.982;2023-04-26T00:52:32;96765.91;;;4.11;100.00
47366;BME280;33105;47.964;7.982;2023-04-26T00:55:34;96766.56;;;4.06;100.00
47366;BME280;33105;47.964;7.982;2023-04-26T00:58:37;96767.53;;;4.19;100.00
47366;BME280;33105;47.964;7.982;2023-04-26T01:01:38;96772.03;;;4.25;100.00
47366;BME280;33105;47.964;7.982;2023-04-26T01:04:42;96772.56;;;4.33;100.00
47366;BME280;33105;47.964;7.982;2023-04-26T01:07:45;96773.03;;;4.30;100.00
47366;BME280;33105;47.964;7.982;2023-04-26T01:10:47;96767.31;;;4.20;100.00
47366;BME280;33105;47.964;7.982;2023-04-26T01:13:49;96770.59;;;4.22;100.00
47366;BME280;33105;47.964;7.982;2023-04-26T01:16:51;96763.91;;;4.25;100.00
47366;BME280;33105;47.964;7.982;2023-04-26T01:19:52;96761.34;;;4.12;100.00
47366;BME280;33105;47.964;7.982;2023-04-26T01:22:54;96761.13;;;4.13;100.00
47366;BME280;33105;47.964;7.982;2023-04-26T01:25:55;96748.47;;;4.07;100.00
47366;BME280;33105;47.964;7.982;2023-04-26T01:28:57;96744.25;;;4.18;100.00
47366;BME280;33105;47.964;7.982;2023-04-26T01:31:58;96748.81;;;4.17;100.00
47366;BME280;33105;47.964;7.982;2023-04-26T01:35:02;96750.13;;;4.08;100.00
47366;BME280;33105;47.964;7.982;2023-04-26T01:38:05;96746.44;;;4.02;100.00
47366;BME280;33105;47.964;7.982;2023-04-26T01:41:06;96747.66;;;4.06;100.00
47366;BME280;33105;47.964;7.982;2023-04-26T01:44:07;96744.94;;;4.06;100.00
47366;BME280;33105;47.964;7.982;2023-04-26T01:47:09;96727.81;;;3.94;100.00
47366;BME280;33105;47.964;7.982;2023-04-26T01:50:10;96730.13;;;3.91;100.00
47366;BME280;33105;47.964;7.982;2023-04-26T01:53:12;96728.03;;;3.93;100.00
47366;BME280;33105;47.964;7.982;2023-04-26T01:56:13;96723.72;;;3.85;100.00
47366;BME280;33105;47.964;7.982;2023-04-26T01:59:14;96730.03;;;3.72;100.00
47366;BME280;33105;47.964;7.982;2023-04-26T02:02:16;96733.75;;;3.78;100.00
47366;BME280;33105;47.964;7.982;2023-04-26T02:05:18;96738.50;;;3.83;100.00
47366;BME280;33105;47.964;7.982;2023-04-26T02:08:20;96735.75;;;3.89;100.00
47366;BME280;33105;47.964;7.982;2023-04-26T02:11:21;96736.56;;;3.90;100.00
47366;BME280;33105;47.964;7.982;2023-04-26T02:14:23;96735.31;;;3.92;100.00
47366;BME280;33105;47.964;7.982;2023-04-26T02:17:26;96735.13;;;4.12;100.00
47366;BME280;33105;47.964;7.982;2023-04-26T02:20:29;96735.78;;;4.07;100.00
47366;BME280;33105;47.964;7.982;2023-04-26T02:23:30;96740.94;;;3.91;100.00
47366;BME280;33105;47.964;7.982;2023-04-26T02:26:32;96735.13;;;3.87;100.00
47366;BME280;33105;47.964;7.982;2023-04-26T02:29:35;96740.38;;;3.82;100.00
47366;BME280;33105;47.964;7.982;2023-04-26T02:32:37;96745.56;;;3.84;100.00
47366;BME280;33105;47.964;7.982;2023-04-26T02:35:38;96742.72;;;3.97;100.00
47366;BME280;33105;47.964;7.982;2023-04-26T02:38:39;96740.28;;;3.95;100.00
47366;BME280;33105;47.964;7.982;2023-04-26T02:41:42;96738.81;;;3.68;100.00
47366;BME280;33105;47.964;7.982;2023-04-26T02:44:43;96735.34;;;3.86;100.00
47366;BME280;33105;47.964;7.982;2023-04-26T02:47:45;96730.78;;;4.11;100.00
47366;BME280;33105;47.964;7.982;2023-04-26T02:50:46;96736.84;;;4.06;100.00
47366;BME280;33105;47.964;7.982;2023-04-26T02:53:50;96740.97;;;3.84;100.00
47366;BME280;33105;47.964;7.982;2023-04-26T02:56:52;96743.44;;;3.61;100.00
47366;BME280;33105;47.964;7.982;2023-04-26T02:59:56;96736.78;;;3.63;100.00
47366;BME280;33105;47.964;7.982;2023-04-26T03:02:58;96729.50;;;3.89;100.00
47366;BME280;33105;47.964;7.982;2023-04-26T03:05:59;96729.91;;;3.92;100.00
47366;BME280;33105;47.964;7.982;2023-04-26T03:09:01;96729.56;;;3.82;100.00
47366;BME280;33105;47.964;7.982;2023-04-26T03:12:02;96738.00;;;3.67;100.00
47366;BME280;33105;47.964;7.982;2023-04-26T03:15:04;96738.66;;;3.63;100.00
47366;BME280;33105;47.964;7.982;2023-04-26T03:18:06;96730.28;;;3.71;100.00
47366;BME280;33105;47.964;7.982;2023-04-26T03:21:07;96726.00;;;3.57;100.00
47366;BME280;33105;47.964;7.982;2023-04-26T03:24:09;96725.56;;;3.60;100.00
47366;BME280;33105;47.964;7.982;2023-04-26T03:27:11;96724.97;;;3.58;100.00
47366;BME280;33105;47.964;7.982;2023-04-26T03:30:13;96734.38;;;3.49;100.00
47366;BME280;33105;47.964;7.982;2023-04-26T03:33:17;96725.66;;;3.47;100.00
47366;BME280;33105;47.964;7.982;2023-04-26T03:36:18;96730.47;;;3.45;100.00
47366;BME280;33105;47.964;7.982;2023-04-26T03:39:19;96724.72;;;3.34;100.00
47366;BME280;33105;47.964;7.982;2023-04-26T03:42:20;96710.78;;;3.37;100.00
47366;BME280;33105;47.964;7.982;2023-04-26T03:45:22;96721.56;;;3.37;100.00
47366;BME280;33105;47.964;7.982;2023-04-26T03:48:23;96713.75;;;3.23;100.00
47366;BME280;33105;47.964;7.982;2023-04-26T03:51:24;96717.75;;;3.20;100.00
47366;BME280;33105;47.964;7.982;2023-04-26T03:54:27;96708.84;;;3.13;100.00
47366;BME280;33105;47.964;7.982;2023-04-26T03:57:29;96720.06;;;3.10;100.00
47366;BME280;33105;47.964;7.982;2023-04-26T04:00:31;96720.47;;;3.14;100.00
47366;BME280;33105;47.964;7.982;2023-04-26T04:03:34;96707.31;;;2.92;100.00
47366;BME280;33105;47.964;7.982;2023-04-26T04:07:47;96712.28;;;2.89;100.00
47366;BME280;33105;47.964;7.982;2023-04-26T04:11:10;96704.84;;;2.84;100.00
47366;BME280;33105;47.964;7.982;2023-04-26T04:18:18;96714.19;;;2.82;100.00
47366;BME280;33105;47.964;7.982;2023-04-26T04:22:11;96713.16;;;2.83;100.00
47366;BME280;33105;47.964;7.982;2023-04-26T04:26:21;96710.25;;;2.78;100.00
47366;BME280;33105;47.964;7.982;2023-04-26T04:29:25;96711.91;;;2.79;100.00
47366;BME280;33105;47.964;7.982;2023-04-26T04:32:29;96713.38;;;2.74;100.00
47366;BME280;33105;47.964;7.982;2023-04-26T04:35:34;96718.59;;;2.69;100.00
47366;BME280;33105;47.964;7.982;2023-04-26T04:38:39;96718.16;;;2.72;100.00
47366;BME280;33105;47.964;7.982;2023-04-26T04:41:44;96723.34;;;2.74;100.00
47366;BME280;33105;47.964;7.982;2023-04-26T04:44:49;96721.31;;;2.69;100.00
47366;BME280;33105;47.964;7.982;2023-04-26T04:47:56;96727.13;;;2.66;100.00
47366;BME280;33105;47.964;7.982;2023-04-26T04:56:05;96730.22;;;2.70;100.00
47366;BME280;33105;47.964;7.982;2023-04-26T04:59:31;96729.41;;;2.69;100.00
47366;BME280;33105;47.964;7.982;2023-04-26T05:02:38;96731.19;;;2.82;100.00
47366;BME280;33105;47.964;7.982;2023-04-26T05:06:20;96734.31;;;2.86;100.00
47366;BME280;33105;47.964;7.982;2023-04-26T05:14:58;96742.59;;;2.91;100.00
47366;BME280;33105;47.964;7.982;2023-04-26T05:18:32;96751.25;;;2.99;100.00
47366;BME280;33105;47.964;7.982;2023-04-26T05:21:40;96743.81;;;2.95;100.00
47366;BME280;33105;47.964;7.982;2023-04-26T05:24:59;96738.78;;;3.05;100.00
47366;BME280;33105;47.964;7.982;2023-04-26T05:28:07;96746.41;;;3.15;100.00
47366;BME280;33105;47.964;7.982;2023-04-26T05:31:39;96756.50;;;3.32;100.00
47366;BME280;33105;47.964;7.982;2023-04-26T05:34:57;96758.06;;;3.47;100.00
47366;BME280;33105;47.964;7.982;2023-04-26T05:37:59;96756.41;;;3.77;100.00
47366;BME280;33105;47.964;7.982;2023-04-26T05:41:00;96751.13;;;3.89;100.00
47366;BME280;33105;47.964;7.982;2023-04-26T05:44:03;96757.16;;;4.16;100.00
47366;BME280;33105;47.964;7.982;2023-04-26T05:47:05;96765.09;;;4.54;100.00
47366;BME280;33105;47.964;7.982;2023-04-26T05:50:07;96767.81;;;4.72;100.00
47366;BME280;33105;47.964;7.982;2023-04-26T05:53:10;96769.31;;;4.86;100.00
47366;BME280;33105;47.964;7.982;2023-04-26T05:56:12;96768.34;;;4.99;100.00
47366;BME280;33105;47.964;7.982;2023-04-26T05:59:14;96776.09;;;5.13;100.00
47366;BME280;33105;47.964;7.982;2023-04-26T06:02:16;96782.56;;;5.12;100.00
47366;BME280;33105;47.964;7.982;2023-04-26T06:05:17;96788.66;;;5.08;100.00
47366;BME280;33105;47.964;7.982;2023-04-26T06:08:20;96790.50;;;5.26;100.00
47366;BME280;33105;47.964;7.982;2023-04-26T06:11:24;96792.72;;;5.17;100.00
47366;BME280;33105;47.964;7.982;2023-04-26T06:14:29;96796.03;;;5.49;100.00
47366;BME280;33105;47.964;7.982;2023-04-26T06:17:31;96796.91;;;5.31;100.00
47366;BME280;33105;47.964;7.982;2023-04-26T06:20:33;96793.09;;;5.51;100.00
47366;BME280;33105;47.964;7.982;2023-04-26T06:23:34;96787.53;;;5.45;100.00
47366;BME280;33105;47.964;7.982;2023-04-26T06:26:36;96788.00;;;5.72;100.00
47366;BME280;33105;47.964;7.982;2023-04-26T06:29:39;96800.31;;;5.87;100.00
47366;BME280;33105;47.964;7.982;2023-04-26T06:32:42;96793.41;;;5.72;100.00
47366;BME280;33105;47.964;7.982;2023-04-26T06:35:44;96798.72;;;5.97;100.00
47366;BME280;33105;47.964;7.982;2023-04-26T06:38:48;96791.16;;;5.99;100.00
47366;BME280;33105;47.964;7.982;2023-04-26T06:41:49;96787.88;;;5.97;100.00
47366;BME280;33105;47.964;7.982;2023-04-26T06:45:01;96779.25;;;5.89;100.00
47366;BME280;33105;47.964;7.982;2023-04-26T06:48:03;96774.81;;;5.76;100.00
47366;BME280;33105;47.964;7.982;2023-04-26T06:51:07;96776.00;;;5.80;100.00
47366;BME280;33105;47.964;7.982;2023-04-26T06:54:11;96777.97;;;5.61;100.00
47366;BME280;33105;47.964;7.982;2023-04-26T06:57:13;96778.31;;;5.35;100.00
47366;BME280;33105;47.964;7.982;2023-04-26T07:00:16;96777.34;;;5.29;100.00
47366;BME280;33105;47.964;7.982;2023-04-26T07:03:18;96775.56;;;5.53;100.00
47366;BME280;33105;47.964;7.982;2023-04-26T07:06:19;96773.13;;;5.63;100.00
47366;BME280;33105;47.964;7.982;2023-04-26T07:09:21;96783.06;;;5.39;100.00
47366;BME280;33105;47.964;7.982;2023-04-26T07:12:23;96775.97;;;5.38;100.00
47366;BME280;33105;47.964;7.982;2023-04-26T07:15:25;96769.00;;;5.61;100.00
47366;BME280;33105;47.964;7.982;2023-04-26T07:18:27;96771.59;;;5.97;100.00
47366;BME280;33105;47.964;7.982;2023-04-26T07:21:30;96761.28;;;6.64;100.00
47366;BME280;33105;47.964;7.982;2023-04-26T07:24:33;96757.59;;;6.82;100.00
47366;BME280;33105;47.964;7.982;2023-04-26T07:27:35;96761.47;;;6.98;100.00
47366;BME280;33105;47.964;7.982;2023-04-26T07:30:38;96755.34;;;6.91;100.00
47366;BME280;33105;47.964;7.982;2023-04-26T07:33:39;96746.47;;;6.95;100.00
47366;BME280;33105;47.964;7.982;2023-04-26T07:36:42;96753.38;;;6.28;100.00
47366;BME280;33105;47.964;7.982;2023-04-26T07:39:43;96759.72;;;6.45;100.00
47366;BME280;33105;47.964;7.982;2023-04-26T07:42:45;96757.16;;;6.62;100.00
47366;BME280;33105;47.964;7.982;2023-04-26T07:45:47;96750.78;;;6.56;100.00
47366;BME280;33105;47.964;7.982;2023-04-26T07:48:50;96749.13;;;6.67;100.00
47366;BME280;33105;47.964;7.982;2023-04-26T07:51:52;96743.56;;;6.50;100.00
47366;BME280;33105;47.964;7.982;2023-04-26T07:54:56;96742.88;;;6.66;100.00
47366;BME280;33105;47.964;7.982;2023-04-26T07:57:57;96742.50;;;6.51;100.00
47366;BME280;33105;47.964;7.982;2023-04-26T08:00:59;96737.78;;;6.81;100.00
47366;BME280;33105;47.964;7.982;2023-04-26T08:04:01;96738.31;;;7.07;100.00
47366;BME280;33105;47.964;7.982;2023-04-26T08:07:05;96741.19;;;7.29;100.00
47366;BME280;33105;47.964;7.982;2023-04-26T08:10:07;96738.50;;;7.57;100.00
47366;BME280;33105;47.964;7.982;2023-04-26T08:13:08;96745.66;;;7.92;100.00
47366;BME280;33105;47.964;7.982;2023-04-26T08:16:10;96741.06;;;7.35;100.00
47366;BME280;33105;47.964;7.982;2023-04-26T08:19:12;96747.56;;;7.63;100.00
47366;BME280;33105;47.964;7.982;2023-04-26T08:22:14;96748.31;;;7.75;96.92
47366;BME280;33105;47.964;7.982;2023-04-26T08:25:16;96731.72;;;8.05;93.33
47366;BME280;33105;47.964;7.982;2023-04-26T08:28:18;96734.97;;;7.73;93.78
47366;BME280;33105;47.964;7.982;2023-04-26T08:31:20;96738.16;;;7.54;93.51
47366;BME280;33105;47.964;7.982;2023-04-26T08:34:23;96734.50;;;7.93;85.93
47366;BME280;33105;47.964;7.982;2023-04-26T08:37:25;96726.75;;;8.18;89.24
47366;BME280;33105;47.964;7.982;2023-04-26T08:40:26;96735.81;;;8.36;95.17
47366;BME280;33105;47.964;7.982;2023-04-26T08:43:28;96737.13;;;8.33;91.81
47366;BME280;33105;47.964;7.982;2023-04-26T08:46:35;96733.28;;;8.17;92.18
47366;BME280;33105;47.964;7.982;2023-04-26T08:49:43;96742.66;;;8.38;91.73
47366;BME280;33105;47.964;7.982;2023-04-26T08:52:48;96728.50;;;8.58;86.29
47366;BME280;33105;47.964;7.982;2023-04-26T08:55:52;96724.16;;;8.57;90.92
47366;BME280;33105;47.964;7.982;2023-04-26T08:58:54;96728.81;;;9.00;81.42
47366;BME280;33105;47.964;7.982;2023-04-26T09:01:57;96722.91;;;9.79;78.56
47366;BME280;33105;47.964;7.982;2023-04-26T09:05:00;96724.06;;;9.34;86.40
47366;BME280;33105;47.964;7.982;2023-04-26T09:08:03;96726.22;;;9.81;81.86
47366;BME280;33105;47.964;7.982;2023-04-26T09:11:07;96723.84;;;9.41;81.30
47366;BME280;33105;47.964;7.982;2023-04-26T09:14:09;96725.34;;;9.27;86.37
47366;BME280;33105;47.964;7.982;2023-04-26T09:17:24;96729.22;;;9.09;83.70
47366;BME280;33105;47.964;7.982;2023-04-26T09:20:28;96725.53;;;9.20;87.00
47366;BME280;33105;47.964;7.982;2023-04-26T09:23:31;96725.09;;;9.28;85.09
47366;BME280;33105;47.964;7.982;2023-04-26T09:26:33;96718.34;;;8.92;83.26
47366;BME280;33105;47.964;7.982;2023-04-26T09:29:35;96718.91;;;8.94;81.19
47366;BME280;33105;47.964;7.982;2023-04-26T09:36:12;96713.94;;;9.30;84.98
47366;BME280;33105;47.964;7.982;2023-04-26T09:39:31;96720.03;;;9.15;85.57
47366;BME280;33105;47.964;7.982;2023-04-26T09:42:34;96721.06;;;9.58;83.09
47366;BME280;33105;47.964;7.982;2023-04-26T09:49:00;96708.38;;;10.00;81.62
47366;BME280;33105;47.964;7.982;2023-04-26T09:52:04;96706.31;;;10.12;82.53
47366;BME280;33105;47.964;7.982;2023-04-26T09:55:07;96707.16;;;9.86;78.50
47366;BME280;33105;47.964;7.982;2023-04-26T09:58:09;96712.84;;;10.11;81.62
47366;BME280;33105;47.964;7.982;2023-04-26T10:01:15;96703.06;;;10.95;72.76
47366;BME280;33105;47.964;7.982;2023-04-26T10:04:20;96705.00;;;10.52;74.34
47366;BME280;33105;47.964;7.982;2023-04-26T10:07:23;96702.53;;;10.98;74.35
47366;BME280;33105;47.964;7.982;2023-04-26T10:10:25;96713.88;;;10.05;72.39
47366;BME280;33105;47.964;7.982;2023-04-26T10:13:27;96708.59;;;9.94;74.58
47366;BME280;33105;47.964;7.982;2023-04-26T10:16:29;96706.75;;;10.31;76.10
47366;BME280;33105;47.964;7.982;2023-04-26T10:19:33;96704.34;;;10.35;75.39
47366;BME280;33105;47.964;7.982;2023-04-26T10:22:44;96702.25;;;10.52;76.31
47366;BME280;33105;47.964;7.982;2023-04-26T10:25:47;96699.41;;;10.32;74.98
47366;BME280;33105;47.964;7.982;2023-04-26T10:35:12;96679.81;;;11.70;73.09
47366;BME280;33105;47.964;7.982;2023-04-26T10:38:14;96691.72;;;11.23;74.15
47366;BME280;33105;47.964;7.982;2023-04-26T10:41:29;96679.31;;;11.88;67.88
47366;BME280;33105;47.964;7.982;2023-04-26T10:44:41;96679.72;;;11.34;71.27
47366;BME280;33105;47.964;7.982;2023-04-26T10:47:43;96674.94;;;11.92;70.49
47366;BME280;33105;47.964;7.982;2023-04-26T10:54:02;96681.44;;;11.71;69.78
47366;BME280;33105;47.964;7.982;2023-04-26T10:57:04;96681.38;;;11.35;67.85
47366;BME280;33105;47.964;7.982;2023-04-26T11:03:14;96680.19;;;11.11;69.74
47366;BME280;33105;47.964;7.982;2023-04-26T11:06:15;96676.44;;;11.42;66.73
47366;BME280;33105;47.964;7.982;2023-04-26T11:12:41;96676.47;;;11.37;66.34
47366;BME280;33105;47.964;7.982;2023-04-26T11:15:42;96673.56;;;11.79;68.17
47366;BME280;33105;47.964;7.982;2023-04-26T11:18:45;96672.09;;;11.36;64.46
47366;BME280;33105;47.964;7.982;2023-04-26T11:21:47;96676.38;;;11.12;66.17
47366;BME280;33105;47.964;7.982;2023-04-26T11:24:49;96675.69;;;10.89;66.37
47366;BME280;33105;47.964;7.982;2023-04-26T11:27:59;96667.50;;;11.72;65.03
47366;BME280;33105;47.964;7.982;2023-04-26T11:31:02;96660.09;;;11.68;69.14
47366;BME280;33105;47.964;7.982;2023-04-26T11:34:04;96663.94;;;11.72;69.39
47366;BME280;33105;47.964;7.982;2023-04-26T11:37:06;96650.00;;;12.49;63.55
47366;BME280;33105;47.964;7.982;2023-04-26T11:40:09;96644.56;;;11.99;61.64
47366;BME280;33105;47.964;7.982;2023-04-26T11:43:12;96652.50;;;12.25;62.63
47366;BME280;33105;47.964;7.982;2023-04-26T11:46:14;96651.91;;;12.39;62.62
47366;BME280;33105;47.964;7.982;2023-04-26T11:49:17;96650.88;;;12.09;64.47
47366;BME280;33105;47.964;7.982;2023-04-26T11:52:19;96657.09;;;11.69;64.45
47366;BME280;33105;47.964;7.982;2023-04-26T11:55:27;96663.66;;;11.73;66.30
47366;BME280;33105;47.964;7.982;2023-04-26T11:58:29;96655.41;;;11.38;65.57
47366;BME280;33105;47.964;7.982;2023-04-26T12:01:31;96663.84;;;11.31;63.71
47366;BME280;33105;47.964;7.982;2023-04-26T12:04:34;96658.19;;;11.73;66.69
47366;BME280;33105;47.964;7.982;2023-04-26T12:07:36;96648.13;;;11.99;62.40
47366;BME280;33105;47.964;7.982;2023-04-26T12:10:38;96654.41;;;11.79;65.02
47366;BME280;33105;47.964;7.982;2023-04-26T12:13:40;96644.28;;;12.05;63.42
47366;BME280;33105;47.964;7.982;2023-04-26T12:16:42;96644.03;;;12.12;60.57
47366;BME280;33105;47.964;7.982;2023-04-26T12:19:48;96651.97;;;12.03;63.08
47366;BME280;33105;47.964;7.982;2023-04-26T12:22:57;96640.09;;;12.64;56.94
47366;BME280;33105;47.964;7.982;2023-04-26T12:25:59;96644.53;;;11.88;62.77
47366;BME280;33105;47.964;7.982;2023-04-26T12:29:04;96644.78;;;11.56;64.49
47366;BME280;33105;47.964;7.982;2023-04-26T12:32:06;96645.81;;;11.45;63.61
47366;BME280;33105;47.964;7.982;2023-04-26T12:35:08;96640.44;;;11.81;60.38
47366;BME280;33105;47.964;7.982;2023-04-26T12:38:11;96634.16;;;12.21;58.03
47366;BME280;33105;47.964;7.982;2023-04-26T12:41:13;96628.94;;;12.14;61.69
47366;BME280;33105;47.964;7.982;2023-04-26T12:44:15;96621.81;;;11.88;59.77
47366;BME280;33105;47.964;7.982;2023-04-26T12:47:18;96613.06;;;12.01;59.42
47366;BME280;33105;47.964;7.982;2023-04-26T12:50:19;96616.09;;;12.10;61.18
47366;BME280;33105;47.964;7.982;2023-04-26T12:53:21;96617.06;;;12.65;60.66
47366;BME280;33105;47.964;7.982;2023-04-26T12:56:24;96617.78;;;13.01;56.50
47366;BME280;33105;47.964;7.982;2023-04-26T12:59:26;96612.16;;;12.62;56.36
47366;BME280;33105;47.964;7.982;2023-04-26T13:02:28;96611.63;;;12.54;55.74
47366;BME280;33105;47.964;7.982;2023-04-26T13:05:30;96606.94;;;12.65;58.97
47366;BME280;33105;47.964;7.982;2023-04-26T13:08:33;96614.88;;;12.67;60.04
47366;BME280;33105;47.964;7.982;2023-04-26T13:11:35;96613.06;;;12.26;59.43
47366;BME280;33105;47.964;7.982;2023-04-26T13:14:37;96605.38;;;12.18;57.10
47366;BME280;33105;47.964;7.982;2023-04-26T13:17:39;96610.03;;;12.18;58.92
47366;BME280;33105;47.964;7.982;2023-04-26T13:20:43;96611.69;;;11.93;57.54
47366;BME280;33105;47.964;7.982;2023-04-26T13:23:46;96619.84;;;11.63;56.77
47366;BME280;33105;47.964;7.982;2023-04-26T13:26:48;96615.78;;;11.71;56.71
47366;BME280;33105;47.964;7.982;2023-04-26T13:29:50;96609.78;;;11.89;56.64
47366;BME280;33105;47.964;7.982;2023-04-26T13:32:52;96612.50;;;11.74;57.28
47366;BME280;33105;47.964;7.982;2023-04-26T13:35:55;96607.34;;;11.82;57.44
47366;BME280;33105;47.964;7.982;2023-04-26T13:38:56;96603.75;;;11.97;56.63
47366;BME280;33105;47.964;7.982;2023-04-26T13:41:58;96607.59;;;12.01;55.39
47366;BME280;33105;47.964;7.982;2023-04-26T13:45:01;96599.94;;;11.83;56.19
47366;BME280;33105;47.964;7.982;2023-04-26T13:48:06;96608.69;;;11.95;56.30
47366;BME280;33105;47.964;7.982;2023-04-26T13:51:08;96604.31;;;11.99;58.27
47366;BME280;33105;47.964;7.982;2023-04-26T13:54:09;96605.94;;;12.31;55.46
47366;BME280;33105;47.964;7.982;2023-04-26T13:57:12;96602.88;;;12.52;52.88
47366;BME280;33105;47.964;7.982;2023-04-26T14:00:14;96599.84;;;12.54;52.74
47366;BME280;33105;47.964;7.982;2023-04-26T14:03:16;96600.13;;;12.42;52.65
47366;BME280;33105;47.964;7.982;2023-04-26T14:06:18;96596.00;;;12.55;53.29
47366;BME280;33105;47.964;7.982;2023-04-26T14:09:20;96600.69;;;12.44;54.32
47366;BME280;33105;47.964;7.982;2023-04-26T14:12:22;96598.22;;;12.53;55.03
47366;BME280;33105;47.964;7.982;2023-04-26T14:15:24;96608.84;;;12.70;54.07
47366;BME280;33105;47.964;7.982;2023-04-26T14:18:26;96597.56;;;12.86;51.78
47366;BME280;33105;47.964;7.982;2023-04-26T14:21:28;96600.25;;;12.91;53.92
47366;BME280;33105;47.964;7.982;2023-04-26T14:24:31;96595.75;;;13.26;53.06
47366;BME280;33105;47.964;7.982;2023-04-26T14:27:34;96587.56;;;13.11;49.96
47366;BME280;33105;47.964;7.982;2023-04-26T14:30:37;96603.50;;;13.04;50.02
47366;BME280;33105;47.964;7.982;2023-04-26T14:33:39;96602.97;;;12.97;49.66
47366;BME280;33105;47.964;7.982;2023-04-26T14:36:40;96596.66;;;13.06;49.43
47366;BME280;33105;47.964;7.982;2023-04-26T14:39:43;96589.78;;;13.09;49.37
47366;BME280;33105;47.964;7.982;2023-04-26T14:42:44;96590.34;;;13.06;49.71
47366;BME280;33105;47.964;7.982;2023-04-26T14:45:46;96594.94;;;13.25;51.72
47366;BME280;33105;47.964;7.982;2023-04-26T14:48:49;96586.41;;;13.27;49.78
47366;BME280;33105;47.964;7.982;2023-04-26T14:51:51;96586.34;;;13.37;51.52
47366;BME280;33105;47.964;7.982;2023-04-26T14:54:52;96586.88;;;13.39;49.39
47366;BME280;33105;47.964;7.982;2023-04-26T14:57:54;96578.63;;;13.39;50.27
47366;BME280;33105;47.964;7.982;2023-04-26T15:00:56;96577.06;;;13.28;49.22
47366;BME280;33105;47.964;7.982;2023-04-26T15:03:59;96570.78;;;13.27;51.26
47366;BME280;33105;47.964;7.982;2023-04-26T15:07:02;96577.59;;;13.35;50.13
47366;BME280;33105;47.964;7.982;2023-04-26T15:10:06;96584.13;;;13.39;50.58
47366;BME280;33105;47.964;7.982;2023-04-26T15:13:08;96584.63;;;13.51;52.63
47366;BME280;33105;47.964;7.982;2023-04-26T15:16:10;96572.16;;;13.25;48.51
47366;BME280;33105;47.964;7.982;2023-04-26T15:19:11;96575.47;;;13.12;47.86
47366;BME280;33105;47.964;7.982;2023-04-26T15:22:13;96576.59;;;13.11;48.94
47366;BME280;33105;47.964;7.982;2023-04-26T15:25:15;96573.91;;;12.95;48.09
47366;BME280;33105;47.964;7.982;2023-04-26T15:28:18;96572.78;;;13.07;49.48
47366;BME280;33105;47.964;7.982;2023-04-26T15:31:19;96568.59;;;13.24;50.75
47366;BME280;33105;47.964;7.982;2023-04-26T15:34:22;96576.09;;;13.04;50.19
47366;BME280;33105;47.964;7.982;2023-04-26T15:37:26;96568.97;;;13.03;49.67
47366;BME280;33105;47.964;7.982;2023-04-26T15:40:28;96566.78;;;12.94;46.86
47366;BME280;33105;47.964;7.982;2023-04-26T15:43:30;96577.50;;;12.91;51.14
47366;BME280;33105;47.964;7.982;2023-04-26T15:46:32;96573.44;;;12.83;47.59
47366;BME280;33105;47.964;7.982;2023-04-26T15:49:34;96573.22;;;12.65;48.46
47366;BME280;33105;47.964;7.982;2023-04-26T15:52:36;96574.28;;;12.74;48.32
47366;BME280;33105;47.964;7.982;2023-04-26T15:55:39;96574.09;;;12.60;49.59
47366;BME280;33105;47.964;7.982;2023-04-26T15:58:45;96587.47;;;12.67;48.98
47366;BME280;33105;47.964;7.982;2023-04-26T16:01:47;96589.91;;;12.78;50.36
47366;BME280;33105;47.964;7.982;2023-04-26T16:04:49;96588.06;;;12.58;50.44
47366;BME280;33105;47.964;7.982;2023-04-26T16:07:51;96590.28;;;12.46;49.29
47366;BME280;33105;47.964;7.982;2023-04-26T16:10:52;96583.44;;;12.44;49.21
47366;BME280;33105;47.964;7.982;2023-04-26T16:13:54;96581.25;;;12.41;51.60
47366;BME280;33105;47.964;7.982;2023-04-26T16:16:56;96578.00;;;12.29;50.46
47366;BME280;33105;47.964;7.982;2023-04-26T16:19:59;96585.13;;;12.14;50.91
47366;BME280;33105;47.964;7.982;2023-04-26T16:23:01;96588.44;;;12.06;52.44
47366;BME280;33105;47.964;7.982;2023-04-26T16:26:03;96587.34;;;12.12;54.52
47366;BME280;33105;47.964;7.982;2023-04-26T16:29:05;96585.97;;;12.05;53.96
47366;BME280;33105;47.964;7.982;2023-04-26T16:32:06;96590.63;;;11.84;54.37
47366;BME280;33105;47.964;7.982;2023-04-26T16:35:08;96584.91;;;11.85;54.50
47366;BME280;33105;47.964;7.982;2023-04-26T16:38:11;96581.28;;;11.70;54.00
47366;BME280;33105;47.964;7.982;2023-04-26T16:41:12;96589.28;;;11.86;54.47
47366;BME280;33105;47.964;7.982;2023-04-26T16:44:14;96585.41;;;11.62;55.42
47366;BME280;33105;47.964;7.982;2023-04-26T16:47:17;96582.41;;;11.58;56.41
47366;BME280;33105;47.964;7.982;2023-04-26T16:50:19;96583.22;;;11.59;55.88